createdAt,value
2023-03-22T00:00:53.527Z,2.50
2023-03-22T00:03:20.364Z,2.50
2023-03-22T00:05:46.721Z,2.40
2023-03-22T00:08:13.151Z,2.60
2023-03-22T00:10:40.191Z,2.47
2023-03-22T00:13:07.516Z,2.60
2023-03-22T00:15:34.880Z,2.60
2023-03-22T00:18:01.594Z,2.60
2023-03-22T00:20:32.957Z,2.40
2023-03-22T00:22:59.691Z,2.90
2023-03-22T00:25:26.442Z,2.40
2023-03-22T00:27:52.893Z,2.47
2023-03-22T00:30:19.253Z,2.47
2023-03-22T00:32:45.961Z,2.50
2023-03-22T00:35:12.191Z,2.50
2023-03-22T00:37:39.462Z,2.40
2023-03-22T00:40:10.572Z,2.40
2023-03-22T00:42:37.419Z,2.40
2023-03-22T00:45:06.018Z,2.65
2023-03-22T00:47:32.702Z,2.30
2023-03-22T00:49:59.074Z,2.40
2023-03-22T00:52:25.329Z,2.40
2023-03-22T00:54:51.731Z,2.50
2023-03-22T00:57:17.900Z,2.40
2023-03-22T00:59:44.388Z,2.50
2023-03-22T01:02:13.807Z,2.42
2023-03-22T01:04:46.463Z,2.25
2023-03-22T01:07:16.977Z,2.40
2023-03-22T01:09:49.057Z,2.50
2023-03-22T01:12:15.881Z,2.40
2023-03-22T01:14:42.170Z,2.42
2023-03-22T01:17:08.310Z,2.40
2023-03-22T01:19:35.237Z,2.40
2023-03-22T01:22:01.999Z,2.50
2023-03-22T01:24:28.223Z,2.47
2023-03-22T01:26:54.429Z,2.30
2023-03-22T01:29:20.591Z,2.60
2023-03-22T01:31:46.756Z,2.40
2023-03-22T01:34:13.653Z,2.50
2023-03-22T01:36:40.413Z,2.40
2023-03-22T01:39:06.659Z,2.50
2023-03-22T01:41:34.402Z,2.47
2023-03-22T01:44:14.779Z,2.50
2023-03-22T01:46:41.749Z,2.40
2023-03-22T01:49:36.626Z,2.42
2023-03-22T01:52:08.978Z,2.40
2023-03-22T01:54:42.380Z,2.58
2023-03-22T01:57:08.696Z,2.50
2023-03-22T01:59:34.942Z,2.30
2023-03-22T02:02:02.200Z,2.37
2023-03-22T02:04:33.543Z,2.30
2023-03-22T02:07:01.858Z,2.37
2023-03-22T02:09:29.154Z,2.45
2023-03-22T02:15:31.114Z,2.30
2023-03-22T02:24:03.772Z,2.40
2023-03-22T02:27:21.163Z,2.50
2023-03-22T02:30:24.816Z,2.37
2023-03-22T02:39:51.760Z,2.40
2023-03-22T02:42:50.119Z,2.20
2023-03-22T02:46:38.963Z,2.40
2023-03-22T02:51:01.146Z,2.40
2023-03-22T02:53:34.854Z,2.30
2023-03-22T02:56:03.603Z,2.30
2023-03-22T02:58:45.111Z,2.40
2023-03-22T03:01:18.177Z,2.30
2023-03-22T03:03:47.400Z,2.28
2023-03-22T03:06:19.547Z,2.50
2023-03-22T03:08:46.065Z,2.40
2023-03-22T03:11:12.193Z,2.50
2023-03-22T03:13:38.426Z,2.30
2023-03-22T03:16:07.050Z,2.35
2023-03-22T03:25:34.228Z,2.30
2023-03-22T03:28:30.070Z,2.30
2023-03-22T03:31:03.382Z,2.40
2023-03-22T03:33:29.838Z,2.50
2023-03-22T03:35:59.807Z,2.30
2023-03-22T03:38:27.818Z,2.50
2023-03-22T03:41:08.596Z,2.40
2023-03-22T03:43:34.769Z,2.60
2023-03-22T03:46:01.062Z,2.55
2023-03-22T03:48:28.925Z,2.50
2023-03-22T03:50:56.215Z,2.50
2023-03-22T03:53:22.663Z,2.47
2023-03-22T03:55:48.846Z,2.40
2023-03-22T03:58:18.040Z,2.60
2023-03-22T04:00:46.799Z,2.60
2023-03-22T04:03:13.010Z,2.50
2023-03-22T04:05:39.454Z,2.47
2023-03-22T04:08:05.777Z,2.70
2023-03-22T04:10:32.111Z,2.70
2023-03-22T04:12:58.338Z,2.70
2023-03-22T04:15:24.537Z,2.55
2023-03-22T04:17:50.703Z,2.70
2023-03-22T04:20:17.800Z,2.60
2023-03-22T04:22:46.070Z,2.60
2023-03-22T04:25:13.581Z,2.90
2023-03-22T04:27:40.801Z,2.70
2023-03-22T04:30:10.385Z,2.78
2023-03-22T04:32:37.300Z,2.80
2023-03-22T04:35:04.815Z,2.85
2023-03-22T04:37:30.980Z,2.78
2023-03-22T04:39:58.139Z,2.67
2023-03-22T04:42:25.017Z,2.60
2023-03-22T04:44:51.307Z,2.60
2023-03-22T04:47:18.172Z,3.00
2023-03-22T04:49:44.658Z,2.83
2023-03-22T04:52:11.904Z,3.00
2023-03-22T04:54:38.233Z,3.00
2023-03-22T04:57:05.170Z,2.90
2023-03-22T04:59:31.403Z,3.00
2023-03-22T05:01:57.652Z,3.10
2023-03-22T05:04:24.062Z,3.00
2023-03-22T05:06:50.297Z,3.15
2023-03-22T05:09:16.531Z,3.10
2023-03-22T05:11:43.267Z,3.20
2023-03-22T05:14:10.071Z,3.10
2023-03-22T05:16:36.524Z,3.20
2023-03-22T05:19:03.889Z,3.20
2023-03-22T05:21:36.194Z,3.05
2023-03-22T05:24:03.279Z,3.00
2023-03-22T05:26:29.987Z,3.00
2023-03-22T05:28:56.148Z,2.80
2023-03-22T05:31:22.425Z,2.83
2023-03-22T05:33:49.766Z,2.90
2023-03-22T05:36:16.484Z,2.87
2023-03-22T05:38:43.956Z,2.80
2023-03-22T05:41:11.403Z,3.10
2023-03-22T05:43:37.545Z,3.00
2023-03-22T05:46:08.028Z,3.00
2023-03-22T05:48:36.320Z,3.10
2023-03-22T05:51:06.070Z,3.00
2023-03-22T05:53:32.833Z,3.10
2023-03-22T05:56:01.692Z,3.08
2023-03-22T05:58:31.450Z,2.80
2023-03-22T06:01:00.365Z,2.90
2023-03-22T06:03:27.302Z,2.67
2023-03-22T06:05:55.335Z,2.50
2023-03-22T06:08:25.361Z,2.53
2023-03-22T06:10:52.860Z,2.40
2023-03-22T06:13:19.671Z,2.30
2023-03-22T06:15:47.071Z,2.30
2023-03-22T06:18:14.317Z,2.30
2023-03-22T06:20:40.824Z,2.10
2023-03-22T06:23:07.352Z,2.37
2023-03-22T06:25:35.150Z,2.20
2023-03-22T06:28:02.703Z,2.25
2023-03-22T06:30:29.000Z,2.20
2023-03-22T06:32:56.342Z,2.20
2023-03-22T06:35:23.797Z,2.30
2023-03-22T06:37:50.487Z,2.20
2023-03-22T06:40:16.995Z,2.40
2023-03-22T06:42:43.195Z,2.20
2023-03-22T06:45:10.066Z,2.20
2023-03-22T06:47:36.391Z,2.28
2023-03-22T06:50:02.899Z,2.30
2023-03-22T06:52:29.444Z,2.30
2023-03-22T06:54:56.332Z,2.40
2023-03-22T06:57:22.541Z,2.53
2023-03-22T06:59:48.871Z,2.50
2023-03-22T07:02:15.154Z,2.50
2023-03-22T07:04:41.420Z,2.50
2023-03-22T07:07:07.778Z,2.53
2023-03-22T07:09:34.185Z,2.53
2023-03-22T07:12:01.440Z,3.72
2023-03-22T07:14:28.488Z,4.53
2023-03-22T07:16:56.774Z,6.22
2023-03-22T07:19:23.031Z,5.50
2023-03-22T07:21:50.150Z,6.40
2023-03-22T07:24:17.771Z,4.65
2023-03-22T07:26:44.026Z,4.47
2023-03-22T07:29:11.146Z,3.92
2023-03-22T07:31:37.447Z,4.50
2023-03-22T07:34:04.388Z,3.97
2023-03-22T07:36:30.689Z,3.10
2023-03-22T07:38:57.022Z,2.80
2023-03-22T07:41:23.646Z,2.58
2023-03-22T07:43:55.419Z,2.67
2023-03-22T07:46:27.040Z,2.67
2023-03-22T07:48:53.676Z,3.08
2023-03-22T07:51:20.202Z,3.15
2023-03-22T07:53:46.962Z,2.92
2023-03-22T07:56:13.605Z,3.58
2023-03-22T07:58:39.974Z,3.28
2023-03-22T08:01:10.177Z,3.30
2023-03-22T08:03:37.102Z,3.08
2023-03-22T08:06:06.961Z,3.05
2023-03-22T08:08:36.306Z,2.70
2023-03-22T08:11:06.721Z,2.72
2023-03-22T08:13:33.608Z,3.10
2023-03-22T08:16:00.813Z,3.25
2023-03-22T08:18:27.455Z,3.42
2023-03-22T08:20:55.861Z,3.60
2023-03-22T08:23:38.400Z,3.83
2023-03-22T08:26:07.859Z,4.70
2023-03-22T08:28:34.196Z,5.28
2023-03-22T08:31:01.052Z,4.03
2023-03-22T08:33:27.957Z,4.90
2023-03-22T08:36:07.217Z,6.12
2023-03-22T08:38:33.431Z,5.12
2023-03-22T08:40:59.762Z,4.75
2023-03-22T08:43:27.475Z,4.50
2023-03-22T08:45:53.804Z,4.25
2023-03-22T08:48:20.644Z,4.55
2023-03-22T08:50:48.617Z,4.37
2023-03-22T08:53:15.922Z,4.15
2023-03-22T08:55:44.308Z,4.25
2023-03-22T08:58:15.601Z,4.80
2023-03-22T09:00:48.976Z,4.68
2023-03-22T09:03:16.268Z,4.30
2023-03-22T09:05:43.711Z,4.10
2023-03-22T09:08:18.341Z,3.95
2023-03-22T09:10:52.608Z,4.28
2023-03-22T09:13:19.856Z,3.97
2023-03-22T09:15:46.345Z,3.53
2023-03-22T09:18:13.149Z,3.20
2023-03-22T09:20:40.204Z,3.00
2023-03-22T09:23:07.308Z,3.05
2023-03-22T09:25:33.804Z,4.15
2023-03-22T09:28:00.869Z,4.72
2023-03-22T09:30:27.895Z,4.97
2023-03-22T09:32:54.678Z,4.47
2023-03-22T09:35:21.601Z,4.03
2023-03-22T09:37:48.977Z,3.47
2023-03-22T09:40:15.188Z,3.22
2023-03-22T09:42:46.165Z,3.28
2023-03-22T09:45:54.955Z,3.47
2023-03-22T09:48:24.685Z,4.15
2023-03-22T09:50:52.554Z,4.85
2023-03-22T09:53:19.252Z,5.45
2023-03-22T09:56:01.652Z,4.50
2023-03-22T09:58:48.226Z,4.00
2023-03-22T10:01:36.774Z,5.28
2023-03-22T10:04:56.557Z,7.55
2023-03-22T10:07:39.611Z,7.30
2023-03-22T10:10:18.357Z,6.20
2023-03-22T10:15:53.544Z,5.30
2023-03-22T10:18:40.933Z,3.42
2023-03-22T10:21:14.563Z,4.10
2023-03-22T10:23:57.473Z,4.75
2023-03-22T10:26:38.201Z,3.72
2023-03-22T10:29:14.678Z,4.18
2023-03-22T10:31:43.015Z,3.87
2023-03-22T10:34:21.264Z,3.55
2023-03-22T10:36:49.244Z,3.53
2023-03-22T10:39:58.051Z,3.40
2023-03-22T10:42:26.408Z,3.35
2023-03-22T10:44:59.549Z,3.60
2023-03-22T10:47:35.600Z,3.08
2023-03-22T10:50:04.564Z,3.15
2023-03-22T10:52:59.293Z,3.10
2023-03-22T10:55:26.201Z,3.00
2023-03-22T10:59:32.790Z,3.20
2023-03-22T11:02:01.291Z,3.30
2023-03-22T11:04:30.677Z,2.92
2023-03-22T11:06:57.485Z,3.10
2023-03-22T11:09:25.700Z,3.10
2023-03-22T11:12:00.030Z,3.40
2023-03-22T11:14:35.282Z,3.20
2023-03-22T11:17:09.863Z,3.12
2023-03-22T11:19:40.930Z,3.30
2023-03-22T11:24:11.164Z,3.22
2023-03-22T11:26:40.782Z,3.10
2023-03-22T11:29:16.317Z,3.08
2023-03-22T11:32:32.449Z,2.90
2023-03-22T11:35:10.911Z,2.65
2023-03-22T11:37:50.871Z,3.10
2023-03-22T11:40:31.001Z,2.80
2023-03-22T11:44:01.370Z,3.00
2023-03-22T11:46:28.406Z,3.37
2023-03-22T11:49:00.483Z,3.10
2023-03-22T11:51:35.505Z,2.80
2023-03-22T11:54:08.767Z,2.80
2023-03-22T11:56:40.429Z,2.60
2023-03-22T11:59:21.622Z,2.70
2023-03-22T12:01:55.198Z,2.67
2023-03-22T12:04:27.048Z,2.50
2023-03-22T12:06:56.554Z,2.72
2023-03-22T12:11:02.349Z,2.62
2023-03-22T12:13:38.202Z,2.70
2023-03-22T12:16:06.564Z,2.65
2023-03-22T12:18:47.201Z,2.60
2023-03-22T12:21:15.054Z,2.70
2023-03-22T12:23:41.190Z,2.50
2023-03-22T12:26:21.921Z,2.62
2023-03-22T12:29:21.557Z,2.97
2023-03-22T12:32:06.505Z,2.50
2023-03-22T12:34:41.719Z,2.60
2023-03-22T12:37:12.039Z,2.35
2023-03-22T12:39:45.641Z,2.50
2023-03-22T12:42:24.489Z,2.58
2023-03-22T12:45:04.269Z,2.60
2023-03-22T12:48:16.475Z,2.60
2023-03-22T12:50:52.870Z,2.60
2023-03-22T12:53:19.418Z,2.70
2023-03-22T12:55:46.267Z,2.58
2023-03-22T12:58:17.318Z,3.22
2023-03-22T13:00:55.720Z,2.90
2023-03-22T13:03:28.181Z,3.40
2023-03-22T13:06:05.609Z,3.45
2023-03-22T13:10:43.005Z,3.40
2023-03-22T13:15:03.483Z,2.83
2023-03-22T13:17:38.768Z,3.30
2023-03-22T13:20:27.847Z,3.22
2023-03-22T13:23:04.156Z,3.28
2023-03-22T13:25:34.344Z,3.17
2023-03-22T13:28:03.363Z,3.08
2023-03-22T13:30:55.872Z,3.20
2023-03-22T13:33:34.110Z,3.40
2023-03-22T13:36:22.925Z,3.50
2023-03-22T13:39:12.000Z,4.10
2023-03-22T13:41:38.821Z,3.92
2023-03-22T13:47:45.177Z,4.28
2023-03-22T13:50:22.199Z,2.40
2023-03-22T13:52:54.616Z,2.50
2023-03-22T13:56:13.884Z,2.58
2023-03-22T13:58:53.326Z,2.33
2023-03-22T14:03:03.289Z,2.53
2023-03-22T14:05:31.871Z,2.42
2023-03-22T14:08:12.484Z,2.67
2023-03-22T14:10:44.143Z,2.72
